sensor_id;sensor_type;location;lat;lon;timestamp;temperature;humidity
6146;DHT22;3104;50.348;7.620;2023-11-19T00:01:28;10.60;99.90
6146;DHT22;3104;50.348;7.620;2023-11-19T00:03:53;10.70;99.90
6146;DHT22;3104;50.348;7.620;2023-11-19T00:06:19;10.70;99.90
6146;DHT22;3104;50.348;7.620;2023-11-19T00:08:44;10.80;99.90
6146;DHT22;3104;50.348;7.620;2023-11-19T00:11:10;10.80;99.90
6146;DHT22;3104;50.348;7.620;2023-11-19T00:13:36;10.90;99.90
6146;DHT22;3104;50.348;7.620;2023-11-19T00:16:02;10.90;99.90
6146;DHT22;3104;50.348;7.620;2023-11-19T00:18:29;11.00;99.90
6146;DHT22;3104;50.348;7.620;2023-11-19T00:20:55;11.00;99.90
6146;DHT22;3104;50.348;7.620;2023-11-19T00:23:20;11.10;99.90
6146;DHT22;3104;50.348;7.620;2023-11-19T00:25:46;11.00;99.90
6146;DHT22;3104;50.348;7.620;2023-11-19T00:28:13;10.80;99.90
6146;DHT22;3104;50.348;7.620;2023-11-19T00:30:38;11.00;99.90
6146;DHT22;3104;50.348;7.620;2023-11-19T00:33:06;11.00;99.90
6146;DHT22;3104;50.348;7.620;2023-11-19T00:35:31;11.00;99.90
6146;DHT22;3104;50.348;7.620;2023-11-19T00:37:58;11.10;99.90
6146;DHT22;3104;50.348;7.620;2023-11-19T00:40:23;11.30;99.90
6146;DHT22;3104;50.348;7.620;2023-11-19T00:42:49;11.10;99.90
6146;DHT22;3104;50.348;7.620;2023-11-19T00:45:15;11.20;99.90
6146;DHT22;3104;50.348;7.620;2023-11-19T00:47:41;11.20;99.90
6146;DHT22;3104;50.348;7.620;2023-11-19T00:50:07;11.20;99.90
6146;DHT22;3104;50.348;7.620;2023-11-19T00:52:35;11.30;99.90
6146;DHT22;3104;50.348;7.620;2023-11-19T00:55:01;11.30;99.90
6146;DHT22;3104;50.348;7.620;2023-11-19T00:57:26;11.30;99.90
6146;DHT22;3104;50.348;7.620;2023-11-19T00:59:52;11.40;99.90
6146;DHT22;3104;50.348;7.620;2023-11-19T01:02:18;11.30;99.90
6146;DHT22;3104;50.348;7.620;2023-11-19T01:04:43;11.30;99.90
6146;DHT22;3104;50.348;7.620;2023-11-19T01:07:09;11.30;99.90
6146;DHT22;3104;50.348;7.620;2023-11-19T01:09:38;11.40;99.90
6146;DHT22;3104;50.348;7.620;2023-11-19T01:12:04;11.60;99.90
6146;DHT22;3104;50.348;7.620;2023-11-19T01:14:30;11.50;99.90
6146;DHT22;3104;50.348;7.620;2023-11-19T01:16:56;11.40;99.90
6146;DHT22;3104;50.348;7.620;2023-11-19T01:19:22;11.40;99.90
6146;DHT22;3104;50.348;7.620;2023-11-19T01:21:49;11.50;99.90
6146;DHT22;3104;50.348;7.620;2023-11-19T01:24:14;11.40;99.90
6146;DHT22;3104;50.348;7.620;2023-11-19T01:26:41;11.50;99.90
6146;DHT22;3104;50.348;7.620;2023-11-19T01:29:13;11.50;99.90
6146;DHT22;3104;50.348;7.620;2023-11-19T01:31:46;11.50;99.90
6146;DHT22;3104;50.348;7.620;2023-11-19T01:34:12;11.60;99.90
6146;DHT22;3104;50.348;7.620;2023-11-19T01:36:38;11.50;99.90
6146;DHT22;3104;50.348;7.620;2023-11-19T01:39:04;11.50;99.90
6146;DHT22;3104;50.348;7.620;2023-11-19T01:41:34;11.40;99.90
6146;DHT22;3104;50.348;7.620;2023-11-19T01:44:00;11.40;99.90
6146;DHT22;3104;50.348;7.620;2023-11-19T01:46:26;11.40;99.90
6146;DHT22;3104;50.348;7.620;2023-11-19T01:48:52;11.50;99.90
6146;DHT22;3104;50.348;7.620;2023-11-19T01:51:19;11.50;99.90
6146;DHT22;3104;50.348;7.620;2023-11-19T01:53:46;11.60;99.90
6146;DHT22;3104;50.348;7.620;2023-11-19T01:56:14;11.50;99.90
6146;DHT22;3104;50.348;7.620;2023-11-19T01:58:41;11.50;99.90
6146;DHT22;3104;50.348;7.620;2023-11-19T02:01:07;11.50;99.90
6146;DHT22;3104;50.348;7.620;2023-11-19T02:03:33;11.50;99.90
6146;DHT22;3104;50.348;7.620;2023-11-19T02:06:03;11.70;99.90
6146;DHT22;3104;50.348;7.620;2023-11-19T02:08:29;11.60;99.90
6146;DHT22;3104;50.348;7.620;2023-11-19T02:10:55;11.60;99.90
6146;DHT22;3104;50.348;7.620;2023-11-19T02:13:26;11.50;99.90
6146;DHT22;3104;50.348;7.620;2023-11-19T02:15:52;11.50;99.90
6146;DHT22;3104;50.348;7.620;2023-11-19T02:18:23;11.50;99.90
6146;DHT22;3104;50.348;7.620;2023-11-19T02:20:49;11.60;99.90
6146;DHT22;3104;50.348;7.620;2023-11-19T02:23:16;11.50;99.90
6146;DHT22;3104;50.348;7.620;2023-11-19T02:25:43;11.60;99.90
6146;DHT22;3104;50.348;7.620;2023-11-19T02:28:12;11.60;99.90
6146;DHT22;3104;50.348;7.620;2023-11-19T02:30:38;11.60;99.90
6146;DHT22;3104;50.348;7.620;2023-11-19T02:33:03;11.70;99.90
6146;DHT22;3104;50.348;7.620;2023-11-19T02:35:32;11.50;99.90
6146;DHT22;3104;50.348;7.620;2023-11-19T02:37:58;11.60;99.90
6146;DHT22;3104;50.348;7.620;2023-11-19T02:40:29;11.60;99.90
6146;DHT22;3104;50.348;7.620;2023-11-19T02:42:55;11.60;99.90
6146;DHT22;3104;50.348;7.620;2023-11-19T02:45:22;11.70;99.90
6146;DHT22;3104;50.348;7.620;2023-11-19T02:47:49;11.70;99.90
6146;DHT22;3104;50.348;7.620;2023-11-19T02:50:14;11.70;99.90
6146;DHT22;3104;50.348;7.620;2023-11-19T02:52:44;11.70;99.90
6146;DHT22;3104;50.348;7.620;2023-11-19T02:55:11;11.70;99.90
6146;DHT22;3104;50.348;7.620;2023-11-19T02:57:40;11.80;99.90
6146;DHT22;3104;50.348;7.620;2023-11-19T03:02:41;11.70;99.90
6146;DHT22;3104;50.348;7.620;2023-11-19T03:05:15;11.80;99.90
6146;DHT22;3104;50.348;7.620;2023-11-19T03:07:42;11.80;99.90
6146;DHT22;3104;50.348;7.620;2023-11-19T03:10:12;11.70;99.90
6146;DHT22;3104;50.348;7.620;2023-11-19T03:12:41;11.70;99.90
6146;DHT22;3104;50.348;7.620;2023-11-19T03:15:07;11.80;99.90
6146;DHT22;3104;50.348;7.620;2023-11-19T03:17:36;11.70;99.90
6146;DHT22;3104;50.348;7.620;2023-11-19T03:20:03;11.80;99.90
6146;DHT22;3104;50.348;7.620;2023-11-19T03:22:32;11.70;99.90
6146;DHT22;3104;50.348;7.620;2023-11-19T03:24:59;11.80;99.90
6146;DHT22;3104;50.348;7.620;2023-11-19T03:27:25;11.80;99.90
6146;DHT22;3104;50.348;7.620;2023-11-19T03:29:50;11.80;99.90
6146;DHT22;3104;50.348;7.620;2023-11-19T03:32:16;11.80;99.90
6146;DHT22;3104;50.348;7.620;2023-11-19T03:34:41;11.90;99.90
6146;DHT22;3104;50.348;7.620;2023-11-19T03:37:07;11.80;99.90
6146;DHT22;3104;50.348;7.620;2023-11-19T03:39:33;11.90;99.90
6146;DHT22;3104;50.348;7.620;2023-11-19T03:41:58;11.80;99.90
6146;DHT22;3104;50.348;7.620;2023-11-19T03:44:27;11.90;99.90
6146;DHT22;3104;50.348;7.620;2023-11-19T03:46:52;11.80;99.90
6146;DHT22;3104;50.348;7.620;2023-11-19T03:49:18;11.90;99.90
6146;DHT22;3104;50.348;7.620;2023-11-19T03:51:43;11.80;99.90
6146;DHT22;3104;50.348;7.620;2023-11-19T03:54:09;11.80;99.90
6146;DHT22;3104;50.348;7.620;2023-11-19T03:56:34;11.80;99.90
6146;DHT22;3104;50.348;7.620;2023-11-19T03:59:00;11.70;99.90
6146;DHT22;3104;50.348;7.620;2023-11-19T04:01:26;11.80;99.90
6146;DHT22;3104;50.348;7.620;2023-11-19T04:03:51;11.90;99.90
6146;DHT22;3104;50.348;7.620;2023-11-19T04:06:17;11.90;99.90
6146;DHT22;3104;50.348;7.620;2023-11-19T04:08:43;11.80;99.90
6146;DHT22;3104;50.348;7.620;2023-11-19T04:11:08;11.80;99.90
6146;DHT22;3104;50.348;7.620;2023-11-19T04:13:34;11.80;99.90
6146;DHT22;3104;50.348;7.620;2023-11-19T04:16:00;11.90;99.90
6146;DHT22;3104;50.348;7.620;2023-11-19T04:18:26;11.80;99.90
6146;DHT22;3104;50.348;7.620;2023-11-19T04:20:52;11.80;99.90
6146;DHT22;3104;50.348;7.620;2023-11-19T04:23:18;11.90;99.90
6146;DHT22;3104;50.348;7.620;2023-11-19T04:25:43;11.90;99.90
6146;DHT22;3104;50.348;7.620;2023-11-19T04:28:09;11.80;99.90
6146;DHT22;3104;50.348;7.620;2023-11-19T04:30:35;11.80;99.90
6146;DHT22;3104;50.348;7.620;2023-11-19T04:33:00;11.80;99.90
6146;DHT22;3104;50.348;7.620;2023-11-19T04:35:26;11.80;99.90
6146;DHT22;3104;50.348;7.620;2023-11-19T04:37:52;11.80;99.90
6146;DHT22;3104;50.348;7.620;2023-11-19T04:40:17;11.80;99.90
6146;DHT22;3104;50.348;7.620;2023-11-19T04:42:48;11.80;99.90
6146;DHT22;3104;50.348;7.620;2023-11-19T04:45:13;11.80;99.90
6146;DHT22;3104;50.348;7.620;2023-11-19T04:47:39;11.90;99.90
6146;DHT22;3104;50.348;7.620;2023-11-19T04:50:05;11.90;99.90
6146;DHT22;3104;50.348;7.620;2023-11-19T04:52:31;12.00;99.90
6146;DHT22;3104;50.348;7.620;2023-11-19T04:54:56;12.00;99.90
6146;DHT22;3104;50.348;7.620;2023-11-19T04:57:22;11.90;99.90
6146;DHT22;3104;50.348;7.620;2023-11-19T04:59:47;12.10;99.90
6146;DHT22;3104;50.348;7.620;2023-11-19T05:02:13;12.00;99.90
6146;DHT22;3104;50.348;7.620;2023-11-19T05:04:43;12.10;99.90
6146;DHT22;3104;50.348;7.620;2023-11-19T05:07:09;12.10;99.90
6146;DHT22;3104;50.348;7.620;2023-11-19T05:09:35;12.00;99.90
6146;DHT22;3104;50.348;7.620;2023-11-19T05:12:00;12.00;99.90
6146;DHT22;3104;50.348;7.620;2023-11-19T05:14:28;12.00;99.90
6146;DHT22;3104;50.348;7.620;2023-11-19T05:16:53;12.10;99.90
6146;DHT22;3104;50.348;7.620;2023-11-19T05:19:19;12.10;99.90
6146;DHT22;3104;50.348;7.620;2023-11-19T05:21:44;12.10;99.90
6146;DHT22;3104;50.348;7.620;2023-11-19T05:24:11;12.00;99.90
6146;DHT22;3104;50.348;7.620;2023-11-19T05:26:37;12.00;99.90
6146;DHT22;3104;50.348;7.620;2023-11-19T05:29:03;12.00;99.90
6146;DHT22;3104;50.348;7.620;2023-11-19T05:31:30;12.00;99.90
6146;DHT22;3104;50.348;7.620;2023-11-19T05:33:55;12.00;99.90
6146;DHT22;3104;50.348;7.620;2023-11-19T05:36:21;12.10;99.90
6146;DHT22;3104;50.348;7.620;2023-11-19T05:38:46;12.00;99.90
6146;DHT22;3104;50.348;7.620;2023-11-19T05:41:12;12.00;99.90
6146;DHT22;3104;50.348;7.620;2023-11-19T05:43:38;12.10;99.90
6146;DHT22;3104;50.348;7.620;2023-11-19T05:46:05;11.90;99.90
6146;DHT22;3104;50.348;7.620;2023-11-19T05:48:32;11.90;99.90
6146;DHT22;3104;50.348;7.620;2023-11-19T05:50:57;11.90;99.90
6146;DHT22;3104;50.348;7.620;2023-11-19T05:53:23;11.90;99.90
6146;DHT22;3104;50.348;7.620;2023-11-19T05:55:48;12.00;99.90
6146;DHT22;3104;50.348;7.620;2023-11-19T05:58:23;12.00;99.90
6146;DHT22;3104;50.348;7.620;2023-11-19T06:00:50;12.00;99.90
6146;DHT22;3104;50.348;7.620;2023-11-19T06:03:16;12.10;99.90
6146;DHT22;3104;50.348;7.620;2023-11-19T06:05:45;12.10;99.90
6146;DHT22;3104;50.348;7.620;2023-11-19T06:08:11;12.20;99.90
6146;DHT22;3104;50.348;7.620;2023-11-19T06:10:39;12.10;99.90
6146;DHT22;3104;50.348;7.620;2023-11-19T06:13:05;12.10;99.90
6146;DHT22;3104;50.348;7.620;2023-11-19T06:15:30;12.20;99.90
6146;DHT22;3104;50.348;7.620;2023-11-19T06:17:58;12.20;99.90
6146;DHT22;3104;50.348;7.620;2023-11-19T06:20:25;12.20;99.90
6146;DHT22;3104;50.348;7.620;2023-11-19T06:22:50;12.30;99.90
6146;DHT22;3104;50.348;7.620;2023-11-19T06:25:16;12.20;99.90
6146;DHT22;3104;50.348;7.620;2023-11-19T06:27:42;12.20;99.90
6146;DHT22;3104;50.348;7.620;2023-11-19T06:30:08;12.20;99.90
6146;DHT22;3104;50.348;7.620;2023-11-19T06:32:34;12.10;99.90
6146;DHT22;3104;50.348;7.620;2023-11-19T06:34:59;12.20;99.90
6146;DHT22;3104;50.348;7.620;2023-11-19T06:37:25;12.10;99.90
6146;DHT22;3104;50.348;7.620;2023-11-19T06:39:51;12.10;99.90
6146;DHT22;3104;50.348;7.620;2023-11-19T06:42:17;12.10;99.90
6146;DHT22;3104;50.348;7.620;2023-11-19T06:44:42;12.10;99.90
6146;DHT22;3104;50.348;7.620;2023-11-19T06:47:08;12.10;99.90
6146;DHT22;3104;50.348;7.620;2023-11-19T06:49:33;12.10;99.90
6146;DHT22;3104;50.348;7.620;2023-11-19T06:51:59;12.10;99.90
6146;DHT22;3104;50.348;7.620;2023-11-19T06:54:25;12.20;99.90
6146;DHT22;3104;50.348;7.620;2023-11-19T06:56:50;12.20;99.90
6146;DHT22;3104;50.348;7.620;2023-11-19T06:59:16;12.10;99.90
6146;DHT22;3104;50.348;7.620;2023-11-19T07:01:42;12.10;99.90
6146;DHT22;3104;50.348;7.620;2023-11-19T07:04:13;12.20;99.90
6146;DHT22;3104;50.348;7.620;2023-11-19T07:06:39;12.20;99.90
6146;DHT22;3104;50.348;7.620;2023-11-19T07:09:06;12.30;99.90
6146;DHT22;3104;50.348;7.620;2023-11-19T07:11:41;12.20;99.90
6146;DHT22;3104;50.348;7.620;2023-11-19T07:14:08;12.30;99.90
6146;DHT22;3104;50.348;7.620;2023-11-19T07:16:34;12.40;99.90
6146;DHT22;3104;50.348;7.620;2023-11-19T07:19:03;12.30;99.90
6146;DHT22;3104;50.348;7.620;2023-11-19T07:21:29;12.30;99.90
6146;DHT22;3104;50.348;7.620;2023-11-19T07:23:55;12.40;99.90
6146;DHT22;3104;50.348;7.620;2023-11-19T07:26:21;12.40;99.90
6146;DHT22;3104;50.348;7.620;2023-11-19T07:28:47;12.30;99.90
6146;DHT22;3104;50.348;7.620;2023-11-19T07:31:13;12.30;99.90
6146;DHT22;3104;50.348;7.620;2023-11-19T07:33:39;12.20;99.90
6146;DHT22;3104;50.348;7.620;2023-11-19T07:36:11;12.10;99.90
6146;DHT22;3104;50.348;7.620;2023-11-19T07:38:37;12.10;99.90
6146;DHT22;3104;50.348;7.620;2023-11-19T07:41:04;12.10;99.90
6146;DHT22;3104;50.348;7.620;2023-11-19T07:43:30;12.10;99.90
6146;DHT22;3104;50.348;7.620;2023-11-19T07:45:56;12.20;99.90
6146;DHT22;3104;50.348;7.620;2023-11-19T07:48:24;12.20;99.90
6146;DHT22;3104;50.348;7.620;2023-11-19T07:50:51;12.30;99.90
6146;DHT22;3104;50.348;7.620;2023-11-19T07:53:17;12.40;99.90
6146;DHT22;3104;50.348;7.620;2023-11-19T07:55:42;12.40;90.00
6146;DHT22;3104;50.348;7.620;2023-11-19T07:58:09;12.40;78.00
6146;DHT22;3104;50.348;7.620;2023-11-19T08:00:35;12.40;1.00
6146;DHT22;3104;50.348;7.620;2023-11-19T08:03:01;12.50;1.00
6146;DHT22;3104;50.348;7.620;2023-11-19T08:05:26;12.40;1.00
6146;DHT22;3104;50.348;7.620;2023-11-19T08:07:52;12.30;1.00
6146;DHT22;3104;50.348;7.620;2023-11-19T08:10:19;12.50;1.00
6146;DHT22;3104;50.348;7.620;2023-11-19T08:12:44;12.50;1.00
6146;DHT22;3104;50.348;7.620;2023-11-19T08:15:10;12.40;1.00
6146;DHT22;3104;50.348;7.620;2023-11-19T08:17:36;12.40;52.40
6146;DHT22;3104;50.348;7.620;2023-11-19T08:20:02;12.50;96.00
6146;DHT22;3104;50.348;7.620;2023-11-19T08:22:28;12.40;1.00
6146;DHT22;3104;50.348;7.620;2023-11-19T08:24:53;12.40;1.00
6146;DHT22;3104;50.348;7.620;2023-11-19T08:27:19;12.60;99.90
6146;DHT22;3104;50.348;7.620;2023-11-19T08:29:54;12.60;1.00
6146;DHT22;3104;50.348;7.620;2023-11-19T08:32:26;12.60;1.00
6146;DHT22;3104;50.348;7.620;2023-11-19T08:34:53;12.70;1.00
6146;DHT22;3104;50.348;7.620;2023-11-19T08:37:18;12.70;99.90
6146;DHT22;3104;50.348;7.620;2023-11-19T08:39:46;12.70;41.40
6146;DHT22;3104;50.348;7.620;2023-11-19T08:42:12;12.80;27.50
6146;DHT22;3104;50.348;7.620;2023-11-19T08:44:38;13.00;1.00
6146;DHT22;3104;50.348;7.620;2023-11-19T08:47:04;13.30;99.90
6146;DHT22;3104;50.348;7.620;2023-11-19T08:49:30;13.50;1.00
6146;DHT22;3104;50.348;7.620;2023-11-19T08:51:55;13.80;86.90
6146;DHT22;3104;50.348;7.620;2023-11-19T08:54:21;14.10;3.50
6146;DHT22;3104;50.348;7.620;2023-11-19T08:56:48;14.50;1.00
6146;DHT22;3104;50.348;7.620;2023-11-19T08:59:14;14.30;1.00
6146;DHT22;3104;50.348;7.620;2023-11-19T09:01:40;14.30;1.00
6146;DHT22;3104;50.348;7.620;2023-11-19T09:04:06;13.90;1.00
6146;DHT22;3104;50.348;7.620;2023-11-19T09:06:32;14.20;1.00
6146;DHT22;3104;50.348;7.620;2023-11-19T09:08:58;14.80;99.90
6146;DHT22;3104;50.348;7.620;2023-11-19T09:11:29;14.90;1.00
6146;DHT22;3104;50.348;7.620;2023-11-19T09:13:54;14.40;1.00
6146;DHT22;3104;50.348;7.620;2023-11-19T09:16:20;14.50;99.90
6146;DHT22;3104;50.348;7.620;2023-11-19T09:18:46;14.50;99.90
6146;DHT22;3104;50.348;7.620;2023-11-19T09:21:12;14.30;1.00
6146;DHT22;3104;50.348;7.620;2023-11-19T09:23:38;14.30;1.00
6146;DHT22;3104;50.348;7.620;2023-11-19T09:26:05;14.50;99.90
6146;DHT22;3104;50.348;7.620;2023-11-19T09:28:31;14.60;1.00
6146;DHT22;3104;50.348;7.620;2023-11-19T09:30:57;14.30;1.00
6146;DHT22;3104;50.348;7.620;2023-11-19T09:33:24;14.20;1.00
6146;DHT22;3104;50.348;7.620;2023-11-19T09:35:50;14.30;1.00
6146;DHT22;3104;50.348;7.620;2023-11-19T09:38:16;14.50;99.90
6146;DHT22;3104;50.348;7.620;2023-11-19T09:40:42;14.10;1.00
6146;DHT22;3104;50.348;7.620;2023-11-19T09:43:08;14.20;99.90
6146;DHT22;3104;50.348;7.620;2023-11-19T09:45:50;14.10;1.00
6146;DHT22;3104;50.348;7.620;2023-11-19T09:48:19;14.30;1.00
6146;DHT22;3104;50.348;7.620;2023-11-19T09:50:48;14.30;1.00
6146;DHT22;3104;50.348;7.620;2023-11-19T09:53:14;14.10;1.00
6146;DHT22;3104;50.348;7.620;2023-11-19T09:55:41;14.00;99.90
6146;DHT22;3104;50.348;7.620;2023-11-19T09:58:07;14.30;1.00
6146;DHT22;3104;50.348;7.620;2023-11-19T10:00:33;14.10;99.90
6146;DHT22;3104;50.348;7.620;2023-11-19T10:02:59;14.10;99.90
6146;DHT22;3104;50.348;7.620;2023-11-19T10:05:25;14.20;99.90
6146;DHT22;3104;50.348;7.620;2023-11-19T10:07:52;14.00;20.20
6146;DHT22;3104;50.348;7.620;2023-11-19T10:10:17;14.10;99.90
6146;DHT22;3104;50.348;7.620;2023-11-19T10:12:47;14.00;1.00
6146;DHT22;3104;50.348;7.620;2023-11-19T10:15:24;14.00;1.00
6146;DHT22;3104;50.348;7.620;2023-11-19T10:17:51;13.90;99.90
6146;DHT22;3104;50.348;7.620;2023-11-19T10:20:17;14.00;99.90
6146;DHT22;3104;50.348;7.620;2023-11-19T10:22:43;14.10;1.00
6146;DHT22;3104;50.348;7.620;2023-11-19T10:25:25;14.10;40.40
6146;DHT22;3104;50.348;7.620;2023-11-19T10:27:52;14.20;99.90
6146;DHT22;3104;50.348;7.620;2023-11-19T10:30:22;14.10;99.90
6146;DHT22;3104;50.348;7.620;2023-11-19T10:33:17;14.20;1.00
6146;DHT22;3104;50.348;7.620;2023-11-19T10:35:53;14.00;1.00
6146;DHT22;3104;50.348;7.620;2023-11-19T10:38:19;14.30;1.00
6146;DHT22;3104;50.348;7.620;2023-11-19T10:40:45;14.20;1.00
6146;DHT22;3104;50.348;7.620;2023-11-19T10:43:10;14.30;1.00
6146;DHT22;3104;50.348;7.620;2023-11-19T10:45:37;14.30;1.00
6146;DHT22;3104;50.348;7.620;2023-11-19T10:48:04;14.30;1.00
6146;DHT22;3104;50.348;7.620;2023-11-19T10:50:38;14.20;1.00
6146;DHT22;3104;50.348;7.620;2023-11-19T10:53:05;14.30;1.00
6146;DHT22;3104;50.348;7.620;2023-11-19T10:55:34;14.50;1.00
6146;DHT22;3104;50.348;7.620;2023-11-19T10:58:15;14.40;1.00
6146;DHT22;3104;50.348;7.620;2023-11-19T11:00:45;14.40;1.00
6146;DHT22;3104;50.348;7.620;2023-11-19T11:03:20;14.60;99.90
6146;DHT22;3104;50.348;7.620;2023-11-19T11:05:48;14.50;99.90
6146;DHT22;3104;50.348;7.620;2023-11-19T11:08:14;14.50;1.00
6146;DHT22;3104;50.348;7.620;2023-11-19T11:10:44;14.30;99.90
6146;DHT22;3104;50.348;7.620;2023-11-19T11:13:11;14.60;1.00
6146;DHT22;3104;50.348;7.620;2023-11-19T11:15:39;14.60;1.00
6146;DHT22;3104;50.348;7.620;2023-11-19T11:18:08;14.60;99.90
6146;DHT22;3104;50.348;7.620;2023-11-19T11:20:35;14.60;1.00
6146;DHT22;3104;50.348;7.620;2023-11-19T11:29:31;14.70;74.30
6146;DHT22;3104;50.348;7.620;2023-11-19T11:31:58;14.70;24.40
6146;DHT22;3104;50.348;7.620;2023-11-19T11:37:20;14.90;1.00
6146;DHT22;3104;50.348;7.620;2023-11-19T11:39:47;15.00;1.00
6146;DHT22;3104;50.348;7.620;2023-11-19T11:45:07;15.20;1.00
6146;DHT22;3104;50.348;7.620;2023-11-19T11:57:51;15.50;1.00
6146;DHT22;3104;50.348;7.620;2023-11-19T12:00:33;15.20;1.00
6146;DHT22;3104;50.348;7.620;2023-11-19T12:03:04;15.00;1.00
6146;DHT22;3104;50.348;7.620;2023-11-19T12:05:30;15.20;1.00
6146;DHT22;3104;50.348;7.620;2023-11-19T12:08:01;15.40;1.00
6146;DHT22;3104;50.348;7.620;2023-11-19T12:10:31;15.20;1.00
6146;DHT22;3104;50.348;7.620;2023-11-19T12:12:58;15.30;1.00
6146;DHT22;3104;50.348;7.620;2023-11-19T12:15:24;15.40;1.00
6146;DHT22;3104;50.348;7.620;2023-11-19T12:17:52;15.40;1.00
6146;DHT22;3104;50.348;7.620;2023-11-19T12:20:19;15.60;1.00
6146;DHT22;3104;50.348;7.620;2023-11-19T12:22:46;15.50;1.00
6146;DHT22;3104;50.348;7.620;2023-11-19T12:25:14;15.30;1.00
6146;DHT22;3104;50.348;7.620;2023-11-19T12:27:46;15.10;1.00
6146;DHT22;3104;50.348;7.620;2023-11-19T12:30:17;15.00;1.00
6146;DHT22;3104;50.348;7.620;2023-11-19T12:32:44;14.70;1.00
6146;DHT22;3104;50.348;7.620;2023-11-19T12:35:11;14.70;1.00
6146;DHT22;3104;50.348;7.620;2023-11-19T12:37:41;14.90;1.00
6146;DHT22;3104;50.348;7.620;2023-11-19T12:40:25;14.70;1.00
6146;DHT22;3104;50.348;7.620;2023-11-19T12:42:52;14.60;99.90
6146;DHT22;3104;50.348;7.620;2023-11-19T12:45:18;14.50;1.00
6146;DHT22;3104;50.348;7.620;2023-11-19T12:47:46;14.50;99.90
6146;DHT22;3104;50.348;7.620;2023-11-19T12:50:17;14.40;1.00
6146;DHT22;3104;50.348;7.620;2023-11-19T12:52:58;14.40;99.90
6146;DHT22;3104;50.348;7.620;2023-11-19T12:55:28;14.40;1.00
6146;DHT22;3104;50.348;7.620;2023-11-19T12:57:54;14.40;1.00
6146;DHT22;3104;50.348;7.620;2023-11-19T13:00:22;14.30;1.00
6146;DHT22;3104;50.348;7.620;2023-11-19T13:02:50;14.30;1.00
6146;DHT22;3104;50.348;7.620;2023-11-19T13:05:32;14.40;99.90
6146;DHT22;3104;50.348;7.620;2023-11-19T13:08:09;14.30;79.70
6146;DHT22;3104;50.348;7.620;2023-11-19T13:10:52;14.30;50.10
6146;DHT22;3104;50.348;7.620;2023-11-19T13:13:21;14.30;99.90
6146;DHT22;3104;50.348;7.620;2023-11-19T13:15:47;14.30;99.90
6146;DHT22;3104;50.348;7.620;2023-11-19T13:18:13;14.30;99.90
6146;DHT22;3104;50.348;7.620;2023-11-19T13:20:39;14.30;99.90
6146;DHT22;3104;50.348;7.620;2023-11-19T13:23:06;14.20;99.90
6146;DHT22;3104;50.348;7.620;2023-11-19T13:25:32;14.20;99.90
6146;DHT22;3104;50.348;7.620;2023-11-19T13:27:58;14.20;99.90
6146;DHT22;3104;50.348;7.620;2023-11-19T13:30:25;14.30;99.90
6146;DHT22;3104;50.348;7.620;2023-11-19T13:32:51;14.20;1.00
6146;DHT22;3104;50.348;7.620;2023-11-19T13:35:18;14.10;1.00
6146;DHT22;3104;50.348;7.620;2023-11-19T13:37:44;14.10;1.00
6146;DHT22;3104;50.348;7.620;2023-11-19T13:40:11;14.20;1.00
6146;DHT22;3104;50.348;7.620;2023-11-19T13:42:39;14.30;99.90
6146;DHT22;3104;50.348;7.620;2023-11-19T13:45:11;14.20;1.00
6146;DHT22;3104;50.348;7.620;2023-11-19T13:47:42;14.20;1.00
6146;DHT22;3104;50.348;7.620;2023-11-19T13:50:10;14.20;1.00
6146;DHT22;3104;50.348;7.620;2023-11-19T13:52:40;14.20;1.00
6146;DHT22;3104;50.348;7.620;2023-11-19T13:55:07;14.30;1.00
6146;DHT22;3104;50.348;7.620;2023-11-19T13:57:34;14.40;1.00
6146;DHT22;3104;50.348;7.620;2023-11-19T14:00:01;14.30;1.00
6146;DHT22;3104;50.348;7.620;2023-11-19T14:02:30;14.30;1.00
6146;DHT22;3104;50.348;7.620;2023-11-19T14:04:56;14.30;1.00
6146;DHT22;3104;50.348;7.620;2023-11-19T14:07:21;14.20;1.00
6146;DHT22;3104;50.348;7.620;2023-11-19T14:09:47;14.10;1.00
6146;DHT22;3104;50.348;7.620;2023-11-19T14:12:12;14.10;1.00
6146;DHT22;3104;50.348;7.620;2023-11-19T14:14:38;14.00;1.00
6146;DHT22;3104;50.348;7.620;2023-11-19T14:17:05;14.00;1.00
6146;DHT22;3104;50.348;7.620;2023-11-19T14:19:30;13.90;1.00
6146;DHT22;3104;50.348;7.620;2023-11-19T14:21:56;13.90;1.00
6146;DHT22;3104;50.348;7.620;2023-11-19T14:24:21;13.90;1.00
6146;DHT22;3104;50.348;7.620;2023-11-19T14:26:47;14.00;1.00
6146;DHT22;3104;50.348;7.620;2023-11-19T14:29:14;14.10;1.00
6146;DHT22;3104;50.348;7.620;2023-11-19T14:31:39;14.10;1.00
6146;DHT22;3104;50.348;7.620;2023-11-19T14:34:05;14.00;1.00
6146;DHT22;3104;50.348;7.620;2023-11-19T14:36:31;14.00;1.00
6146;DHT22;3104;50.348;7.620;2023-11-19T14:38:56;14.00;1.00
6146;DHT22;3104;50.348;7.620;2023-11-19T14:41:24;13.90;1.00
6146;DHT22;3104;50.348;7.620;2023-11-19T14:43:50;13.90;1.00
6146;DHT22;3104;50.348;7.620;2023-11-19T14:46:15;13.80;1.00
6146;DHT22;3104;50.348;7.620;2023-11-19T14:48:41;13.80;99.90
6146;DHT22;3104;50.348;7.620;2023-11-19T14:51:07;13.80;61.30
6146;DHT22;3104;50.348;7.620;2023-11-19T14:53:33;13.90;1.00
6146;DHT22;3104;50.348;7.620;2023-11-19T14:56:00;13.80;1.00
6146;DHT22;3104;50.348;7.620;2023-11-19T14:58:25;13.80;1.00
6146;DHT22;3104;50.348;7.620;2023-11-19T15:00:51;13.80;21.90
6146;DHT22;3104;50.348;7.620;2023-11-19T15:03:17;13.80;1.00
6146;DHT22;3104;50.348;7.620;2023-11-19T15:05:45;13.70;99.90
6146;DHT22;3104;50.348;7.620;2023-11-19T15:08:11;13.70;99.90
6146;DHT22;3104;50.348;7.620;2023-11-19T15:10:37;13.60;1.00
6146;DHT22;3104;50.348;7.620;2023-11-19T15:13:03;13.60;1.00
6146;DHT22;3104;50.348;7.620;2023-11-19T15:15:29;13.70;1.00
6146;DHT22;3104;50.348;7.620;2023-11-19T15:17:55;13.70;1.00
6146;DHT22;3104;50.348;7.620;2023-11-19T15:20:20;13.70;1.00
6146;DHT22;3104;50.348;7.620;2023-11-19T15:22:46;13.60;1.00
6146;DHT22;3104;50.348;7.620;2023-11-19T15:25:12;13.60;1.00
6146;DHT22;3104;50.348;7.620;2023-11-19T15:27:38;13.60;1.00
6146;DHT22;3104;50.348;7.620;2023-11-19T15:30:04;13.50;21.40
6146;DHT22;3104;50.348;7.620;2023-11-19T15:32:30;13.50;78.10
6146;DHT22;3104;50.348;7.620;2023-11-19T15:34:57;13.50;1.00
6146;DHT22;3104;50.348;7.620;2023-11-19T15:37:23;13.50;1.00
6146;DHT22;3104;50.348;7.620;2023-11-19T15:39:49;13.40;1.00
6146;DHT22;3104;50.348;7.620;2023-11-19T15:42:17;13.40;99.90
6146;DHT22;3104;50.348;7.620;2023-11-19T15:44:42;13.40;99.90
6146;DHT22;3104;50.348;7.620;2023-11-19T15:47:09;13.40;1.00
6146;DHT22;3104;50.348;7.620;2023-11-19T15:49:34;13.30;99.90
6146;DHT22;3104;50.348;7.620;2023-11-19T15:52:00;13.30;1.00
6146;DHT22;3104;50.348;7.620;2023-11-19T15:54:26;13.40;1.00
6146;DHT22;3104;50.348;7.620;2023-11-19T15:56:51;13.30;99.90
6146;DHT22;3104;50.348;7.620;2023-11-19T15:59:17;13.30;1.00
6146;DHT22;3104;50.348;7.620;2023-11-19T16:01:42;13.30;99.90
6146;DHT22;3104;50.348;7.620;2023-11-19T16:04:08;13.20;99.90
6146;DHT22;3104;50.348;7.620;2023-11-19T16:06:35;13.10;1.00
6146;DHT22;3104;50.348;7.620;2023-11-19T16:09:01;13.10;1.00
6146;DHT22;3104;50.348;7.620;2023-11-19T16:11:27;13.10;99.90
6146;DHT22;3104;50.348;7.620;2023-11-19T16:13:52;13.00;1.00
6146;DHT22;3104;50.348;7.620;2023-11-19T16:16:18;13.00;1.00
6146;DHT22;3104;50.348;7.620;2023-11-19T16:18:43;13.10;1.00
6146;DHT22;3104;50.348;7.620;2023-11-19T16:21:09;13.00;1.00
6146;DHT22;3104;50.348;7.620;2023-11-19T16:23:34;13.00;99.90
6146;DHT22;3104;50.348;7.620;2023-11-19T16:26:00;13.10;1.00
6146;DHT22;3104;50.348;7.620;2023-11-19T16:28:26;13.00;1.00
6146;DHT22;3104;50.348;7.620;2023-11-19T16:30:52;13.00;86.00